Time;durP1;ratioP1;P1;durP2;ratioP2;P2;SDS_P1;SDS_P2;PMS_P1;PMS_P2;Temp;Humidity;BMP_temperature;BMP_pressure;BME280_temperature;BME280_humidity;BME280_pressure;Samples;Min_cycle;Max_cycle;Signal;HPM_P1;HPM_P2
2023/07/19 03:00:42;;;;;;;2.65;1.90;;;27.00;43.80;;;;;;5768222;23;45781;-85
2023/07/19 03:03:09;;;;;;;2.23;1.90;;;27.00;43.80;;;;;;4880356;28;45305;-85
2023/07/19 03:05:35;;;;;;;2.80;1.70;;;27.00;43.80;;;;;;4905208;28;46911;-85
2023/07/19 03:08:04;;;;;;;2.65;1.80;;;27.00;43.80;;;;;;4884196;28;45917;-85
2023/07/19 03:10:29;;;;;;;2.47;1.98;;;27.00;43.80;;;;;;4912020;28;45046;-85
2023/07/19 03:12:55;;;;;;;2.40;1.77;;;27.00;43.80;;;;;;4877169;28;45269;-85
2023/07/19 03:15:21;;;;;;;2.20;1.83;;;27.00;43.80;;;;;;4876233;28;46231;-85
2023/07/19 03:17:46;;;;;;;2.25;1.90;;;27.00;43.80;;;;;;4904808;28;45663;-84
2023/07/19 03:20:12;;;;;;;2.10;1.75;;;27.00;43.80;;;;;;4870643;28;45267;-84
2023/07/19 03:22:38;;;;;;;1.98;1.63;;;27.00;43.80;;;;;;4906244;28;45203;-85
2023/07/19 03:25:07;;;;;;;1.80;1.58;;;27.00;43.80;;;;;;4900114;28;45446;-86
2023/07/19 03:27:33;;;;;;;2.17;1.60;;;27.00;43.80;;;;;;4905296;28;45576;-85
2023/07/19 03:29:59;;;;;;;2.00;1.80;;;27.00;43.80;;;;;;4859099;28;45542;-85
2023/07/19 03:32:25;;;;;;;2.20;1.80;;;26.90;43.70;;;;;;4871134;28;45274;-85
2023/07/19 03:34:50;;;;;;;2.20;1.83;;;27.00;43.80;;;;;;4878982;28;47203;-85
2023/07/19 03:37:16;;;;;;;2.10;1.80;;;27.00;43.80;;;;;;4871430;28;45810;-84
2023/07/19 03:39:42;;;;;;;1.80;1.60;;;27.00;43.80;;;;;;4864450;28;45416;-85
2023/07/19 03:42:09;;;;;;;2.45;1.70;;;27.00;43.80;;;;;;4865229;28;44947;-85
2023/07/19 03:44:34;;;;;;;2.33;1.80;;;27.00;43.80;;;;;;4876912;28;47143;-85
2023/07/19 03:47:00;;;;;;;1.80;1.60;;;27.00;43.80;;;;;;4881115;28;45288;-85
2023/07/19 03:49:25;;;;;;;2.45;1.83;;;27.00;43.80;;;;;;4877316;28;45227;-85
2023/07/19 03:51:51;;;;;;;2.23;1.80;;;27.00;43.80;;;;;;4881099;28;45865;-84
2023/07/19 03:54:17;;;;;;;2.10;1.77;;;27.00;43.80;;;;;;4880048;28;47467;-85
2023/07/19 03:56:43;;;;;;;2.45;1.75;;;27.00;44.40;;;;;;4881896;28;45712;-85
2023/07/19 03:59:09;;;;;;;2.45;1.90;;;27.00;43.80;;;;;;4864990;28;46162;-85
2023/07/19 04:01:34;;;;;;;2.30;1.80;;;27.00;43.80;;;;;;4885295;28;45207;-85
2023/07/19 04:04:00;;;;;;;2.40;1.55;;;27.00;43.80;;;;;;4894433;28;47664;-85
2023/07/19 04:06:25;;;;;;;2.65;1.80;;;27.00;43.80;;;;;;4880639;28;45891;-85
2023/07/19 04:08:51;;;;;;;1.70;1.60;;;27.00;43.80;;;;;;4878886;28;45570;-86
2023/07/19 04:11:16;;;;;;;1.77;1.53;;;27.00;43.80;;;;;;4860270;28;45258;-85
2023/07/19 04:13:42;;;;;;;2.63;1.97;;;27.00;44.40;;;;;;4917235;28;47754;-85
2023/07/19 04:16:07;;;;;;;1.58;1.48;;;27.00;43.80;;;;;;4903428;28;45254;-85
2023/07/19 04:18:33;;;;;;;2.25;1.77;;;27.00;43.80;;;;;;4911664;28;45261;-86
2023/07/19 04:20:59;;;;;;;2.20;1.85;;;27.00;43.90;;;;;;4864764;28;45396;-85
2023/07/19 04:23:25;;;;;;;2.50;1.90;;;27.00;43.80;;;;;;4896554;28;47272;-85
2023/07/19 04:25:51;;;;;;;1.63;1.50;;;27.00;43.90;;;;;;4861505;28;45300;-86
2023/07/19 04:28:17;;;;;;;2.23;1.83;;;27.00;43.80;;;;;;4884426;28;45489;-85
2023/07/19 04:30:44;;;;;;;2.50;1.80;;;27.00;43.90;;;;;;4895179;28;45574;-85
2023/07/19 04:33:10;;;;;;;1.95;1.67;;;27.00;43.80;;;;;;4894063;28;45409;-83
2023/07/19 04:35:36;;;;;;;2.85;1.85;;;27.00;43.80;;;;;;4881198;28;45339;-85
2023/07/19 04:38:03;;;;;;;2.73;1.97;;;27.00;43.80;;;;;;4862663;28;45699;-85
2023/07/19 04:40:29;;;;;;;2.53;1.87;;;27.00;43.90;;;;;;4877246;28;45574;-86
2023/07/19 04:42:55;;;;;;;2.53;1.77;;;27.00;43.90;;;;;;4880049;28;47172;-85
2023/07/19 04:45:21;;;;;;;2.70;1.77;;;26.90;43.80;;;;;;4880964;28;45737;-85
2023/07/19 04:47:46;;;;;;;2.20;2.00;;;27.00;43.90;;;;;;4893468;28;46434;-85
2023/07/19 04:50:15;;;;;;;2.20;2.00;;;27.00;43.90;;;;;;4872560;28;45355;-86
2023/07/19 04:52:40;;;;;;;2.78;2.00;;;27.00;43.90;;;;;;4911331;28;45422;-85
2023/07/19 04:55:12;;;;;;;2.40;1.80;;;26.90;43.80;;;;;;4902641;28;45053;-86
2023/07/19 04:57:37;;;;;;;2.53;2.00;;;26.90;43.90;;;;;;4882646;28;45287;-86
2023/07/19 05:00:11;;;;;;;2.97;2.03;;;27.00;43.90;;;;;;4897993;28;45589;-86
2023/07/19 05:02:36;;;;;;;2.78;2.15;;;26.90;43.90;;;;;;4873573;23;45454;-54
2023/07/19 05:05:07;;;;;;;2.53;2.00;;;26.90;43.90;;;;;;4897512;28;47991;-56
2023/07/19 05:07:34;;;;;;;2.75;1.98;;;26.90;43.90;;;;;;4866311;28;45608;-52
2023/07/19 05:10:00;;;;;;;2.27;1.90;;;26.90;43.90;;;;;;4900275;28;45802;-53
2023/07/19 05:12:26;;;;;;;2.35;1.95;;;26.90;43.90;;;;;;4902028;28;45372;-53
2023/07/19 05:14:52;;;;;;;2.58;1.90;;;26.90;43.90;;;;;;4917184;28;45378;-53
2023/07/19 05:17:18;;;;;;;2.10;1.90;;;27.00;44.00;;;;;;4885643;28;45728;-56
2023/07/19 05:19:43;;;;;;;1.90;1.70;;;26.90;43.90;;;;;;4905808;28;45230;-52
2023/07/19 05:22:10;;;;;;;2.70;1.90;;;26.90;43.90;;;;;;4906008;28;45837;-52
2023/07/19 05:24:37;;;;;;;2.17;1.95;;;26.90;43.90;;;;;;4918275;28;45109;-53
2023/07/19 05:27:02;;;;;;;2.47;2.00;;;26.90;43.90;;;;;;4909468;28;45263;-55
2023/07/19 05:29:28;;;;;;;2.37;2.07;;;26.90;43.90;;;;;;4899872;28;45299;-56
2023/07/19 05:31:54;;;;;;;1.80;1.70;;;26.90;43.90;;;;;;4890819;28;45348;-54
2023/07/19 05:34:19;;;;;;;2.10;1.90;;;27.00;44.00;;;;;;4911866;28;46425;-53
2023/07/19 05:36:45;;;;;;;2.30;1.70;;;26.90;44.00;;;;;;4894565;28;45539;-55
2023/07/19 05:39:10;;;;;;;2.53;1.90;;;26.90;43.90;;;;;;4919582;28;45042;-54
2023/07/19 05:41:36;;;;;;;2.42;1.73;;;26.90;43.90;;;;;;4886129;28;45878;-53
2023/07/19 05:44:02;;;;;;;2.65;2.00;;;26.90;44.00;;;;;;4924230;28;45608;-55
2023/07/19 05:46:28;;;;;;;2.28;1.70;;;26.90;44.00;;;;;;4894283;28;45159;-55
2023/07/19 05:48:54;;;;;;;1.85;1.65;;;26.90;44.00;;;;;;4901481;28;45378;-54
2023/07/19 05:51:19;;;;;;;2.37;1.90;;;26.90;44.00;;;;;;4891311;28;47106;-54
2023/07/19 05:53:45;;;;;;;2.75;1.88;;;26.90;44.00;;;;;;4913284;28;45272;-55
2023/07/19 05:56:10;;;;;;;2.78;2.00;;;26.90;44.00;;;;;;4905268;28;45542;-56
2023/07/19 05:58:36;;;;;;;2.10;1.70;;;26.90;44.00;;;;;;4919074;28;45774;-55
2023/07/19 06:01:04;;;;;;;2.93;2.10;;;26.90;44.00;;;;;;4891655;28;45420;-55
2023/07/19 06:03:29;;;;;;;2.40;1.98;;;26.90;44.00;;;;;;4906573;28;45311;-54
2023/07/19 06:05:55;;;;;;;2.58;2.10;;;26.90;44.00;;;;;;4903764;28;45298;-53
2023/07/19 06:08:20;;;;;;;2.73;1.70;;;26.90;44.00;;;;;;4904045;28;45600;-53
2023/07/19 06:10:46;;;;;;;2.13;1.70;;;26.90;44.00;;;;;;4906609;28;46112;-54
2023/07/19 06:13:14;;;;;;;3.10;1.93;;;26.90;44.00;;;;;;4917942;28;45130;-55
2023/07/19 06:15:40;;;;;;;2.22;2.03;;;26.90;44.00;;;;;;4892761;28;45790;-56
2023/07/19 06:18:06;;;;;;;3.20;1.90;;;26.90;44.00;;;;;;4897400;28;45562;-53
2023/07/19 06:20:32;;;;;;;2.60;1.85;;;26.90;44.00;;;;;;4897720;28;46183;-55
2023/07/19 06:22:57;;;;;;;2.22;1.80;;;26.90;44.00;;;;;;4906731;28;45269;-55
2023/07/19 06:25:23;;;;;;;3.30;1.83;;;26.90;44.60;;;;;;4893570;28;45261;-54
2023/07/19 06:27:48;;;;;;;2.35;1.65;;;26.90;44.00;;;;;;4916089;28;45725;-52
2023/07/19 06:30:14;;;;;;;2.67;2.00;;;26.90;44.00;;;;;;4902206;28;45427;-55
2023/07/19 06:32:39;;;;;;;2.33;1.90;;;26.90;44.00;;;;;;4908099;28;45234;-51
2023/07/19 06:35:09;;;;;;;2.07;1.80;;;26.90;44.00;;;;;;4907735;28;45285;-56
2023/07/19 06:37:34;;;;;;;2.17;1.80;;;26.90;44.00;;;;;;4911321;28;45236;-55
2023/07/19 06:40:02;;;;;;;2.40;1.85;;;26.90;44.00;;;;;;4902192;28;46136;-55
2023/07/19 06:42:28;;;;;;;3.22;2.10;;;26.90;44.00;;;;;;4902937;28;45298;-55
2023/07/19 06:44:54;;;;;;;2.55;1.80;;;26.90;44.00;;;;;;4909023;28;45302;-52
2023/07/19 06:47:19;;;;;;;2.40;2.13;;;26.90;44.00;;;;;;4890869;28;45697;-53
2023/07/19 06:49:45;;;;;;;2.10;1.90;;;26.90;44.00;;;;;;4897843;28;46905;-54
2023/07/19 06:52:10;;;;;;;2.78;1.80;;;26.90;44.00;;;;;;4905504;28;45443;-53
2023/07/19 06:54:36;;;;;;;2.57;1.83;;;26.90;44.00;;;;;;4908074;28;45444;-55
2023/07/19 06:57:02;;;;;;;2.03;1.70;;;26.90;44.00;;;;;;4894304;28;45436;-54
2023/07/19 06:59:28;;;;;;;3.03;1.77;;;26.90;44.00;;;;;;4895300;28;46788;-53
2023/07/19 07:01:54;;;;;;;2.72;1.90;;;26.90;44.00;;;;;;4867835;28;45619;-54
2023/07/19 07:04:19;;;;;;;2.38;2.00;;;26.90;44.00;;;;;;4918868;28;45279;-54
2023/07/19 07:06:45;;;;;;;2.30;1.70;;;26.90;44.00;;;;;;4906837;28;45369;-51
2023/07/19 07:09:11;;;;;;;1.90;1.70;;;26.90;44.00;;;;;;4922577;28;45804;-53
2023/07/19 07:11:37;;;;;;;2.43;1.90;;;26.90;44.00;;;;;;4885046;28;45272;-52
2023/07/19 07:14:02;;;;;;;2.47;1.67;;;26.90;44.00;;;;;;4915083;28;45285;-55
2023/07/19 07:16:28;;;;;;;2.13;1.67;;;26.90;44.00;;;;;;4878256;28;45385;-55
2023/07/19 07:18:54;;;;;;;2.08;1.88;;;26.90;44.00;;;;;;4890107;28;45776;-55
2023/07/19 07:21:20;;;;;;;1.73;1.50;;;26.90;44.00;;;;;;4898201;28;44838;-56
2023/07/19 07:23:45;;;;;;;2.10;1.90;;;26.90;44.10;;;;;;4917946;28;45141;-51
2023/07/19 07:26:11;;;;;;;2.13;1.90;;;26.90;44.00;;;;;;4904363;28;45282;-56
2023/07/19 07:28:37;;;;;;;1.80;1.60;;;26.90;44.00;;;;;;4916385;28;45225;-53
2023/07/19 07:31:09;;;;;;;2.37;1.70;;;26.90;44.00;;;;;;4880387;28;45525;-54
2023/07/19 07:33:35;;;;;;;2.35;1.90;;;26.90;44.00;;;;;;4907813;28;45538;-53
2023/07/19 07:36:01;;;;;;;2.33;1.73;;;26.90;44.00;;;;;;4904805;28;45709;-55
2023/07/19 07:38:27;;;;;;;2.27;1.80;;;26.90;44.00;;;;;;4916708;28;45628;-53
2023/07/19 07:41:01;;;;;;;2.10;1.90;;;26.90;44.00;;;;;;4903845;28;45139;-54
2023/07/19 07:43:26;;;;;;;1.97;1.70;;;26.90;44.00;;;;;;4917300;28;45246;-55
2023/07/19 07:45:55;;;;;;;2.30;1.80;;;26.90;44.00;;;;;;4883067;28;45354;-53
2023/07/19 07:48:22;;;;;;;2.80;1.80;;;26.90;44.00;;;;;;4897440;28;47080;-55
2023/07/19 07:50:51;;;;;;;2.00;1.80;;;26.90;44.00;;;;;;4900594;28;45320;-53
2023/07/19 07:53:20;;;;;;;1.80;1.60;;;26.90;44.00;;;;;;4921400;28;45704;-54
2023/07/19 07:55:46;;;;;;;2.43;1.73;;;26.90;44.00;;;;;;4885071;28;45490;-54
2023/07/19 07:58:12;;;;;;;2.83;1.85;;;26.90;44.00;;;;;;4906952;28;45336;-55
2023/07/19 08:00:38;;;;;;;2.20;1.60;;;26.90;44.00;;;;;;4883931;28;45500;-52
2023/07/19 08:03:03;;;;;;;2.55;1.77;;;26.90;44.00;;;;;;4891877;28;45376;-50
2023/07/19 08:05:29;;;;;;;1.90;1.70;;;26.90;44.00;;;;;;4891642;28;45170;-55
2023/07/19 08:07:54;;;;;;;2.20;1.70;;;26.90;44.00;;;;;;4900256;28;45298;-55
2023/07/19 08:10:22;;;;;;;2.63;1.90;;;26.90;44.00;;;;;;4898601;28;63694;-56
2023/07/19 08:12:48;;;;;;;2.00;1.80;;;26.90;44.10;;;;;;4909485;28;45554;-55
2023/07/19 08:15:14;;;;;;;2.10;1.50;;;26.90;44.00;;;;;;4903689;28;44820;-55
2023/07/19 08:17:40;;;;;;;1.90;1.70;;;26.90;44.10;;;;;;4882923;28;45077;-53
2023/07/19 08:20:09;;;;;;;2.83;2.10;;;26.90;44.00;;;;;;4897614;28;46083;-56
2023/07/19 08:22:35;;;;;;;2.05;1.85;;;26.90;44.00;;;;;;4905974;28;45290;-55
2023/07/19 08:25:01;;;;;;;2.13;1.70;;;26.90;44.00;;;;;;4903827;28;45414;-53
2023/07/19 08:27:26;;;;;;;2.03;1.70;;;26.90;44.00;;;;;;4901918;28;45386;-52
2023/07/19 08:29:52;;;;;;;2.38;1.70;;;26.90;44.00;;;;;;4918008;28;45230;-53
2023/07/19 08:32:18;;;;;;;2.00;1.80;;;26.90;44.00;;;;;;4890309;28;45710;-53
2023/07/19 08:34:44;;;;;;;1.92;1.50;;;26.90;44.00;;;;;;4897360;28;46127;-53
2023/07/19 08:37:10;;;;;;;2.03;1.77;;;26.90;44.00;;;;;;4896081;28;46392;-54
2023/07/19 08:39:35;;;;;;;1.97;1.77;;;26.90;44.00;;;;;;4916633;28;45776;-54
2023/07/19 08:42:02;;;;;;;1.97;1.73;;;26.90;44.10;;;;;;4899538;28;45448;-51
2023/07/19 08:44:28;;;;;;;1.80;1.70;;;26.90;44.10;;;;;;4911501;28;45350;-52
2023/07/19 08:46:54;;;;;;;2.00;1.80;;;26.90;44.00;;;;;;4872060;28;46253;-52
2023/07/19 08:49:20;;;;;;;1.80;1.60;;;26.90;44.10;;;;;;4900086;28;45036;-55
2023/07/19 08:51:46;;;;;;;2.03;1.80;;;26.90;44.20;;;;;;4885976;28;45582;-54
2023/07/19 08:54:12;;;;;;;2.50;1.80;;;26.90;44.10;;;;;;4897875;28;45162;-52
2023/07/19 08:56:38;;;;;;;2.13;1.77;;;26.90;44.10;;;;;;4889085;28;46024;-52
2023/07/19 08:59:07;;;;;;;2.80;1.80;;;26.90;44.10;;;;;;4925987;28;45125;-53
2023/07/19 09:01:33;;;;;;;1.85;1.40;;;26.90;44.10;;;;;;4887969;28;45624;-55
2023/07/19 09:03:58;;;;;;;2.38;1.80;;;26.90;44.10;;;;;;4915662;28;45257;-54
2023/07/19 09:06:30;;;;;;;2.08;1.80;;;26.90;44.00;;;;;;4893025;28;45280;-54
2023/07/19 09:08:56;;;;;;;1.70;1.60;;;26.90;44.10;;;;;;4919391;28;45049;-54
2023/07/19 09:11:22;;;;;;;2.38;1.67;;;26.90;44.10;;;;;;4906548;28;46695;-53
2023/07/19 09:13:55;;;;;;;1.95;1.60;;;26.90;44.10;;;;;;4904965;28;45152;-54
2023/07/19 09:16:29;;;;;;;2.03;1.70;;;26.90;44.00;;;;;;4894915;28;45364;-54
2023/07/19 09:18:59;;;;;;;2.33;1.88;;;26.90;44.10;;;;;;4917856;28;45384;-53
2023/07/19 09:21:37;;;;;;;1.98;1.80;;;27.00;44.10;;;;;;4889332;28;45386;-54
2023/07/19 09:24:07;;;;;;;2.08;1.48;;;26.90;44.10;;;;;;4905897;28;45775;-55
2023/07/19 09:26:52;;;;;;;2.15;1.73;;;26.90;44.10;;;;;;4903097;28;45366;-52
2023/07/19 09:29:20;;;;;;;2.05;1.65;;;26.90;44.10;;;;;;4919518;28;46447;-52
2023/07/19 09:31:54;;;;;;;3.13;1.80;;;26.90;44.10;;;;;;4886722;28;45529;-53
2023/07/19 09:34:27;;;;;;;1.95;1.63;;;26.90;44.10;;;;;;4913046;28;45684;-54
2023/07/19 09:36:53;;;;;;;2.00;1.75;;;26.90;44.10;;;;;;4905257;28;45597;-49
2023/07/19 09:39:20;;;;;;;1.70;1.60;;;27.00;44.20;;;;;;4904451;28;45654;-54
2023/07/19 09:41:45;;;;;;;2.10;1.83;;;27.00;44.20;;;;;;4899386;28;45208;-53
2023/07/19 09:44:11;;;;;;;2.33;1.83;;;26.90;44.10;;;;;;4910329;28;46957;-55
2023/07/19 09:46:37;;;;;;;2.10;1.63;;;26.90;44.10;;;;;;4866268;28;46313;-53
2023/07/19 09:49:02;;;;;;;2.60;1.85;;;26.90;44.10;;;;;;4908326;28;45610;-55
2023/07/19 09:51:29;;;;;;;1.65;1.55;;;26.90;44.10;;;;;;4874165;28;45518;-54
2023/07/19 09:53:55;;;;;;;2.23;1.80;;;27.00;44.20;;;;;;4881611;28;47142;-53
2023/07/19 09:56:20;;;;;;;2.03;1.53;;;27.00;44.20;;;;;;4844887;28;48273;-54
2023/07/19 09:58:46;;;;;;;1.70;1.60;;;27.00;44.20;;;;;;4907954;28;45628;-52
2023/07/19 10:01:13;;;;;;;2.15;1.80;;;26.90;44.10;;;;;;4868255;28;46378;-54
2023/07/19 10:03:38;;;;;;;2.25;1.90;;;27.00;44.20;;;;;;4883923;28;45770;-52
2023/07/19 10:06:04;;;;;;;1.88;1.70;;;26.90;44.10;;;;;;4892201;28;45356;-53
2023/07/19 10:08:30;;;;;;;1.83;1.70;;;27.00;44.20;;;;;;4907365;28;45640;-56
2023/07/19 10:11:00;;;;;;;2.40;1.80;;;27.00;44.20;;;;;;4879204;28;46640;-56
2023/07/19 10:13:50;;;;;;;1.92;1.73;;;27.00;44.20;;;;;;4905545;28;45351;-53
2023/07/19 10:16:24;;;;;;;1.83;1.67;;;27.00;44.20;;;;;;4886619;28;45844;-53
2023/07/19 10:19:08;;;;;;;1.70;1.57;;;27.00;44.20;;;;;;4902119;28;44926;-52
2023/07/19 10:21:35;;;;;;;1.95;1.70;;;27.00;44.30;;;;;;4875668;28;45798;-53
2023/07/19 10:24:07;;;;;;;1.83;1.65;;;27.00;44.30;;;;;;4903524;28;45983;-54
2023/07/19 10:26:36;;;;;;;1.73;1.55;;;27.00;44.30;;;;;;4865541;28;46151;-56
2023/07/19 10:29:05;;;;;;;1.90;1.70;;;27.00;44.30;;;;;;4902116;28;46119;-51
2023/07/19 10:31:32;;;;;;;2.30;1.80;;;27.00;44.30;;;;;;4883102;28;45864;-55
2023/07/19 10:33:57;;;;;;;2.00;1.70;;;27.00;44.30;;;;;;4890053;28;46193;-55
2023/07/19 10:36:23;;;;;;;1.90;1.60;;;27.00;44.30;;;;;;4892965;28;45700;-55
2023/07/19 10:38:49;;;;;;;1.60;1.50;;;27.00;44.30;;;;;;4903572;28;45347;-55
2023/07/19 10:41:15;;;;;;;2.83;1.60;;;27.00;44.30;;;;;;4885924;28;45804;-55
2023/07/19 10:43:41;;;;;;;2.05;1.70;;;27.00;44.30;;;;;;4899107;28;46189;-52
2023/07/19 10:46:07;;;;;;;2.47;2.00;;;27.00;44.30;;;;;;4879989;28;45810;-53
2023/07/19 10:48:35;;;;;;;1.90;1.70;;;27.00;44.30;;;;;;4888212;28;45316;-55
2023/07/19 10:51:03;;;;;;;3.03;1.60;;;27.00;44.30;;;;;;4891089;28;45450;-53
2023/07/19 10:53:29;;;;;;;1.90;1.67;;;27.00;44.30;;;;;;4904401;28;45282;-53
2023/07/19 10:55:56;;;;;;;1.95;1.65;;;27.00;44.30;;;;;;4890773;28;46927;-54
2023/07/19 10:58:22;;;;;;;2.45;1.75;;;27.00;44.30;;;;;;4896020;28;45337;-53
2023/07/19 11:00:48;;;;;;;2.03;1.83;;;27.00;44.30;;;;;;4878937;28;45447;-54
2023/07/19 11:03:14;;;;;;;1.80;1.60;;;27.00;44.30;;;;;;4893279;28;45956;-53
2023/07/19 11:05:41;;;;;;;2.33;1.50;;;27.00;44.30;;;;;;4893656;28;47889;-53
2023/07/19 11:08:08;;;;;;;2.00;1.60;;;27.00;44.30;;;;;;4893047;28;45748;-53
2023/07/19 11:10:34;;;;;;;2.67;1.50;;;27.00;44.30;;;;;;4894833;28;46254;-50
2023/07/19 11:12:59;;;;;;;3.13;1.88;;;27.00;44.40;;;;;;4898067;28;45756;-55
2023/07/19 11:15:27;;;;;;;2.78;1.80;;;27.00;44.30;;;;;;4869551;28;45407;-53
2023/07/19 11:17:55;;;;;;;1.88;1.63;;;27.00;44.30;;;;;;4880507;28;46062;-55
2023/07/19 11:20:30;;;;;;;1.80;1.60;;;27.00;44.30;;;;;;4878281;28;45775;-56
2023/07/19 11:23:05;;;;;;;2.13;1.70;;;27.00;44.30;;;;;;4898191;28;46292;-56
2023/07/19 11:25:30;;;;;;;2.47;1.80;;;27.00;44.20;;;;;;4886912;28;46255;-53
2023/07/19 11:27:56;;;;;;;2.50;1.67;;;27.00;44.30;;;;;;4888433;28;45281;-53
2023/07/19 11:30:23;;;;;;;2.07;1.50;;;27.00;44.30;;;;;;4858782;28;45573;-55
2023/07/19 11:33:04;;;;;;;1.98;1.58;;;27.00;44.30;;;;;;4891356;28;46241;-53
2023/07/19 11:35:29;;;;;;;2.13;1.48;;;27.00;44.30;;;;;;4889212;28;45687;-54
2023/07/19 11:37:55;;;;;;;2.22;1.60;;;27.00;44.20;;;;;;4873968;28;45346;-53
2023/07/19 11:40:25;;;;;;;2.00;1.60;;;27.10;44.30;;;;;;4895768;28;45921;-55
2023/07/19 11:42:56;;;;;;;2.00;1.70;;;27.10;44.30;;;;;;4860062;28;45601;-55
2023/07/19 11:45:27;;;;;;;1.97;1.67;;;27.10;44.20;;;;;;4889809;28;46059;-56
2023/07/19 11:48:01;;;;;;;2.30;1.60;;;27.00;44.10;;;;;;4883249;28;45530;-53
2023/07/19 11:50:27;;;;;;;2.00;1.73;;;27.10;44.20;;;;;;4888760;28;45741;-54
2023/07/19 11:53:01;;;;;;;2.05;1.60;;;27.00;44.20;;;;;;4887558;28;45610;-56
2023/07/19 11:55:27;;;;;;;2.28;1.80;;;27.00;44.20;;;;;;4888500;28;45927;-56
2023/07/19 11:57:53;;;;;;;1.70;1.60;;;27.10;44.20;;;;;;4888049;28;46098;-54
2023/07/19 12:00:22;;;;;;;2.30;1.70;;;27.00;44.20;;;;;;4880993;28;45541;-55
2023/07/19 12:02:49;;;;;;;2.53;1.63;;;27.10;44.20;;;;;;4889484;28;46465;-54
2023/07/19 12:05:16;;;;;;;2.90;1.65;;;27.10;44.20;;;;;;4892221;28;45686;-54
2023/07/19 12:07:42;;;;;;;1.88;1.52;;;27.10;44.10;;;;;;4885351;28;45647;-53
2023/07/19 12:10:08;;;;;;;2.07;1.60;;;27.00;44.10;;;;;;4897761;28;45370;-57
2023/07/19 12:12:33;;;;;;;1.65;1.52;;;27.10;44.20;;;;;;4899499;28;44912;-53
2023/07/19 12:14:59;;;;;;;2.30;1.40;;;27.10;44.10;;;;;;4890851;28;45973;-54
2023/07/19 12:17:25;;;;;;;1.73;1.50;;;27.10;44.10;;;;;;4879102;28;46110;-52
2023/07/19 12:19:52;;;;;;;1.50;1.40;;;27.10;44.10;;;;;;4903183;28;46125;-52
2023/07/19 12:22:18;;;;;;;1.40;1.30;;;27.10;44.10;;;;;;4872607;28;45846;-52
2023/07/19 12:24:44;;;;;;;2.50;1.73;;;27.10;44.10;;;;;;4904828;28;47273;-51
2023/07/19 12:27:10;;;;;;;1.37;1.27;;;27.10;44.10;;;;;;4891485;28;45947;-55
2023/07/19 12:29:36;;;;;;;1.47;1.37;;;27.10;44.10;;;;;;4905353;28;45375;-53
2023/07/19 12:32:05;;;;;;;1.90;1.60;;;27.10;44.10;;;;;;4873293;28;45862;-50
2023/07/19 12:34:30;;;;;;;1.77;1.55;;;27.10;44.10;;;;;;4896076;28;46345;-53
2023/07/19 12:36:56;;;;;;;1.80;1.40;;;27.10;44.10;;;;;;4876442;28;45362;-54
2023/07/19 12:39:24;;;;;;;1.80;1.48;;;27.10;44.10;;;;;;4897874;28;45573;-56
2023/07/19 12:41:55;;;;;;;2.17;1.58;;;27.10;44.10;;;;;;4872007;28;45352;-54
2023/07/19 12:44:21;;;;;;;1.40;1.30;;;27.10;44.10;;;;;;4903260;28;45858;-55
2023/07/19 12:46:48;;;;;;;1.58;1.40;;;27.10;44.00;;;;;;4876893;28;46901;-53
2023/07/19 12:49:19;;;;;;;1.70;1.27;;;27.10;44.00;;;;;;4902203;28;45687;-51
2023/07/19 12:51:45;;;;;;;1.35;1.25;;;27.10;44.00;;;;;;4884655;28;45737;-56
2023/07/19 12:54:11;;;;;;;1.60;1.40;;;27.10;44.00;;;;;;4904427;28;46216;-55
2023/07/19 12:56:37;;;;;;;2.05;1.40;;;27.10;44.00;;;;;;4891052;28;45475;-52
2023/07/19 12:59:02;;;;;;;1.80;1.40;;;27.10;44.00;;;;;;4890700;28;45960;-53
2023/07/19 13:01:28;;;;;;;1.63;1.30;;;27.10;44.00;;;;;;4880253;28;45760;-56
2023/07/19 13:03:54;;;;;;;1.40;1.30;;;27.10;44.00;;;;;;4903307;28;45854;-54
2023/07/19 13:06:21;;;;;;;1.50;1.30;;;27.10;44.00;;;;;;4887238;28;45877;-54
2023/07/19 13:08:47;;;;;;;1.70;1.25;;;27.10;44.00;;;;;;4888454;28;45649;-54
2023/07/19 13:11:12;;;;;;;1.50;1.40;;;27.10;44.00;;;;;;4890765;28;45489;-53
2023/07/19 13:13:38;;;;;;;1.53;1.40;;;27.10;44.00;;;;;;4905381;28;45747;-53
2023/07/19 13:16:04;;;;;;;1.97;1.60;;;27.10;44.00;;;;;;4881876;28;45870;-51
2023/07/19 13:18:30;;;;;;;1.93;1.40;;;27.10;43.90;;;;;;4901291;28;45770;-49
2023/07/19 13:20:57;;;;;;;1.42;1.33;;;27.10;43.90;;;;;;4885115;28;46009;-54
2023/07/19 13:23:23;;;;;;;1.60;1.50;;;27.10;43.90;;;;;;4898285;28;46089;-53
2023/07/19 13:25:49;;;;;;;1.45;1.30;;;27.10;43.90;;;;;;4886966;28;45631;-53
2023/07/19 13:28:14;;;;;;;1.60;1.50;;;27.10;43.90;;;;;;4900928;28;45120;-51
2023/07/19 13:30:40;;;;;;;1.73;1.33;;;27.10;43.90;;;;;;4881739;28;45850;-55
2023/07/19 13:33:06;;;;;;;1.40;1.27;;;27.10;43.90;;;;;;4883428;28;45573;-51
2023/07/19 13:35:32;;;;;;;1.80;1.40;;;27.10;43.90;;;;;;4887315;28;45483;-50
2023/07/19 13:37:58;;;;;;;1.90;1.20;;;27.10;43.90;;;;;;4891569;28;46477;-50
2023/07/19 13:40:23;;;;;;;1.73;1.50;;;27.10;43.90;;;;;;4889573;28;45972;-50
2023/07/19 13:42:49;;;;;;;1.52;1.30;;;27.10;43.90;;;;;;4903775;28;45366;-54
2023/07/19 13:45:14;;;;;;;1.40;1.30;;;27.10;43.90;;;;;;4876002;28;45320;-53
2023/07/19 13:47:40;;;;;;;1.80;1.57;;;27.10;43.90;;;;;;4883003;28;45286;-54
2023/07/19 13:50:07;;;;;;;1.30;1.20;;;27.10;43.90;;;;;;4890981;28;45134;-55
2023/07/19 13:52:33;;;;;;;1.23;1.13;;;27.10;43.90;;;;;;4888029;28;45760;-51
2023/07/19 13:54:59;;;;;;;1.38;1.27;;;27.10;43.80;;;;;;4904920;28;45734;-54
2023/07/19 13:57:24;;;;;;;1.80;1.33;;;27.10;43.80;;;;;;4876421;28;46224;-53
2023/07/19 13:59:50;;;;;;;1.67;1.42;;;27.10;43.80;;;;;;4904698;28;45835;-54
2023/07/19 14:02:16;;;;;;;1.50;1.20;;;27.10;43.90;;;;;;4873691;28;46802;-54
2023/07/19 14:04:41;;;;;;;1.70;1.60;;;27.10;43.80;;;;;;4903919;28;45720;-54
2023/07/19 14:07:07;;;;;;;1.30;1.17;;;27.10;43.80;;;;;;4886828;28;46142;-53
2023/07/19 14:09:32;;;;;;;1.60;1.30;;;27.10;43.80;;;;;;4902779;28;45877;-53
2023/07/19 14:11:58;;;;;;;1.60;1.40;;;27.10;43.80;;;;;;4883101;28;45856;-52
2023/07/19 14:14:24;;;;;;;1.30;1.20;;;27.10;43.80;;;;;;4902643;28;45511;-51
2023/07/19 14:16:51;;;;;;;3.38;1.20;;;27.10;43.80;;;;;;4876956;28;45852;-54
2023/07/19 14:19:17;;;;;;;1.60;1.20;;;27.10;43.80;;;;;;4904560;28;46050;-53
2023/07/19 14:21:43;;;;;;;1.35;1.20;;;27.10;43.80;;;;;;4887741;28;47099;-54
2023/07/19 14:24:09;;;;;;;1.70;1.35;;;27.10;43.80;;;;;;4860157;28;45789;-53
2023/07/19 14:26:35;;;;;;;1.40;1.30;;;27.10;43.80;;;;;;4888847;28;46003;-53
2023/07/19 14:29:02;;;;;;;1.35;1.20;;;27.20;43.80;;;;;;4899590;28;45735;-54
2023/07/19 14:31:29;;;;;;;1.50;1.20;;;27.10;43.80;;;;;;4881186;28;46287;-53
2023/07/19 14:33:54;;;;;;;1.65;1.25;;;27.10;43.80;;;;;;4898298;28;46899;-54
2023/07/19 14:36:20;;;;;;;1.42;1.30;;;27.20;43.80;;;;;;4889562;28;45324;-53
2023/07/19 14:38:46;;;;;;;1.67;1.30;;;27.10;43.70;;;;;;4904274;28;45707;-54
2023/07/19 14:41:11;;;;;;;1.30;1.20;;;27.20;43.80;;;;;;4886254;28;45598;-53
2023/07/19 14:43:41;;;;;;;1.63;1.40;;;27.10;43.70;;;;;;4866755;28;45905;-54
2023/07/19 14:46:06;;;;;;;2.05;1.23;;;27.10;43.70;;;;;;4849822;28;45749;-55
2023/07/19 14:48:32;;;;;;;1.83;1.30;;;27.10;43.70;;;;;;4899215;28;45677;-55
2023/07/19 14:50:58;;;;;;;1.67;1.23;;;27.20;43.60;;;;;;4889411;28;45755;-55
2023/07/19 14:53:24;;;;;;;3.50;1.47;;;27.10;43.60;;;;;;4908644;28;45372;-54
2023/07/19 14:55:52;;;;;;;1.90;1.37;;;27.10;43.60;;;;;;4875019;28;46514;-54
2023/07/19 14:58:18;;;;;;;2.42;1.38;;;27.20;43.70;;;;;;4909199;28;45787;-51
2023/07/19 15:00:44;;;;;;;1.65;1.27;;;27.10;43.60;;;;;;4877423;28;45465;-51
2023/07/19 15:03:10;;;;;;;2.47;1.50;;;27.10;43.60;;;;;;4902394;28;45324;-56
2023/07/19 15:05:36;;;;;;;1.98;1.55;;;27.10;43.50;;;;;;4890592;28;46001;-56
2023/07/19 15:08:02;;;;;;;1.50;1.23;;;27.10;43.60;;;;;;4904101;28;45728;-54
2023/07/19 15:10:28;;;;;;;1.30;1.20;;;27.20;43.60;;;;;;4876751;28;45280;-57
2023/07/19 15:12:53;;;;;;;1.57;1.27;;;27.10;43.60;;;;;;4888590;28;45924;-56
2023/07/19 15:15:20;;;;;;;1.60;1.40;;;27.20;43.60;;;;;;4885867;28;46042;-56
2023/07/19 15:17:46;;;;;;;2.83;1.25;;;27.10;43.60;;;;;;4892943;28;45242;-50
2023/07/19 15:20:12;;;;;;;1.40;1.10;;;27.10;43.60;;;;;;4890627;28;45336;-53
2023/07/19 15:22:37;;;;;;;1.73;1.10;;;27.20;43.60;;;;;;4899245;28;46350;-55
2023/07/19 15:25:07;;;;;;;1.80;1.20;;;27.20;43.60;;;;;;4904467;28;45944;-56
2023/07/19 15:27:36;;;;;;;2.87;1.30;;;27.10;43.60;;;;;;4893686;28;46316;-52
2023/07/19 15:30:07;;;;;;;1.60;1.20;;;27.20;44.20;;;;;;4896397;28;45331;-55
2023/07/19 15:32:32;;;;;;;1.93;1.27;;;27.20;43.70;;;;;;4881228;28;45982;-53
2023/07/19 15:34:58;;;;;;;1.30;1.17;;;27.10;43.70;;;;;;4903063;28;45567;-53
2023/07/19 15:37:23;;;;;;;1.20;1.10;;;27.10;43.70;;;;;;4891007;28;45546;-51
2023/07/19 15:39:49;;;;;;;1.90;1.20;;;27.10;43.60;;;;;;4906435;28;45933;-55
2023/07/19 15:42:15;;;;;;;1.70;1.23;;;27.10;43.60;;;;;;4890666;28;45787;-53
2023/07/19 15:44:40;;;;;;;2.00;1.38;;;27.20;43.70;;;;;;4887576;28;46850;-54